Terminal Aerodrome Forecast
Issued by NWS

Home | Current Version | Previous Version | Graphics & Text | Print | Product List | Glossary On
Versions: 1 2 3 4 5 6 7 8 9 10 11 12 13 14 15 16 17 18 19 20
000
FTUS43 KOAX 261206 AAA
TAFCDR
TAF AMD
KCDR 261206Z 2612/2712 01008KT P6SM BKN100
      TEMPO 2612/2615 BKN019
     FM261500 02008KT P6SM -RA SCT025 BKN080
     FM261700 03009KT P6SM OVC150=

USA.gov is the U.S. government's official web portal to all federal, state and local government web resources and services.